sensor_id;sensor_type;location;lat;lon;timestamp;P1;durP1;ratioP1;P2;durP2;ratioP2
3714;SDS011;1873;49.988;8.674;2022-08-19T00:01:54;18.70;;;16.80;;
3714;SDS011;1873;49.988;8.674;2022-08-19T00:04:28;19.20;;;17.20;;
3714;SDS011;1873;49.988;8.674;2022-08-19T00:06:59;18.87;;;16.90;;
3714;SDS011;1873;49.988;8.674;2022-08-19T00:09:29;18.67;;;16.27;;
3714;SDS011;1873;49.988;8.674;2022-08-19T00:11:57;19.70;;;17.80;;
3714;SDS011;1873;49.988;8.674;2022-08-19T00:14:27;18.50;;;16.53;;
3714;SDS011;1873;49.988;8.674;2022-08-19T00:16:58;19.53;;;17.53;;
3714;SDS011;1873;49.988;8.674;2022-08-19T00:19:28;18.47;;;16.40;;
3714;SDS011;1873;49.988;8.674;2022-08-19T00:21:57;20.43;;;18.27;;
3714;SDS011;1873;49.988;8.674;2022-08-19T00:24:26;18.90;;;17.00;;
3714;SDS011;1873;49.988;8.674;2022-08-19T00:26:55;19.60;;;17.63;;
3714;SDS011;1873;49.988;8.674;2022-08-19T00:29:43;19.27;;;17.00;;
3714;SDS011;1873;49.988;8.674;2022-08-19T00:32:17;19.20;;;17.20;;
3714;SDS011;1873;49.988;8.674;2022-08-19T00:34:47;19.27;;;17.30;;
3714;SDS011;1873;49.988;8.674;2022-08-19T00:37:15;19.50;;;17.43;;
3714;SDS011;1873;49.988;8.674;2022-08-19T00:39:44;18.93;;;16.93;;
3714;SDS011;1873;49.988;8.674;2022-08-19T00:42:14;18.60;;;16.60;;
3714;SDS011;1873;49.988;8.674;2022-08-19T00:44:43;19.00;;;17.00;;
3714;SDS011;1873;49.988;8.674;2022-08-19T00:47:11;19.47;;;17.47;;
3714;SDS011;1873;49.988;8.674;2022-08-19T00:49:41;19.40;;;17.03;;
3714;SDS011;1873;49.988;8.674;2022-08-19T00:52:22;18.37;;;16.50;;
3714;SDS011;1873;49.988;8.674;2022-08-19T00:54:53;20.67;;;16.90;;
3714;SDS011;1873;49.988;8.674;2022-08-19T00:57:23;21.90;;;17.33;;
3714;SDS011;1873;49.988;8.674;2022-08-19T00:59:55;19.33;;;17.33;;
3714;SDS011;1873;49.988;8.674;2022-08-19T01:02:29;18.40;;;16.47;;
3714;SDS011;1873;49.988;8.674;2022-08-19T01:04:59;18.80;;;15.40;;
3714;SDS011;1873;49.988;8.674;2022-08-19T01:07:30;18.27;;;15.70;;
3714;SDS011;1873;49.988;8.674;2022-08-19T01:10:04;17.67;;;15.97;;
3714;SDS011;1873;49.988;8.674;2022-08-19T01:12:35;19.20;;;17.23;;
3714;SDS011;1873;49.988;8.674;2022-08-19T01:15:04;21.00;;;18.70;;
3714;SDS011;1873;49.988;8.674;2022-08-19T01:17:34;20.03;;;18.03;;
3714;SDS011;1873;49.988;8.674;2022-08-19T01:20:05;20.93;;;17.40;;
3714;SDS011;1873;49.988;8.674;2022-08-19T01:22:40;18.93;;;17.00;;
3714;SDS011;1873;49.988;8.674;2022-08-19T01:25:12;18.97;;;16.97;;
3714;SDS011;1873;49.988;8.674;2022-08-19T01:27:43;17.87;;;15.97;;
3714;SDS011;1873;49.988;8.674;2022-08-19T01:30:16;19.33;;;16.83;;
3714;SDS011;1873;49.988;8.674;2022-08-19T01:32:46;18.70;;;16.77;;
3714;SDS011;1873;49.988;8.674;2022-08-19T01:35:14;16.73;;;14.80;;
3714;SDS011;1873;49.988;8.674;2022-08-19T01:37:47;19.40;;;15.67;;
3714;SDS011;1873;49.988;8.674;2022-08-19T01:40:18;20.30;;;17.67;;
3714;SDS011;1873;49.988;8.674;2022-08-19T01:42:49;19.60;;;15.70;;
3714;SDS011;1873;49.988;8.674;2022-08-19T01:45:20;18.93;;;16.30;;
3714;SDS011;1873;49.988;8.674;2022-08-19T01:47:52;19.00;;;17.00;;
3714;SDS011;1873;49.988;8.674;2022-08-19T01:50:27;17.00;;;15.40;;
3714;SDS011;1873;49.988;8.674;2022-08-19T01:52:58;19.10;;;16.37;;
3714;SDS011;1873;49.988;8.674;2022-08-19T01:55:33;24.30;;;15.27;;
3714;SDS011;1873;49.988;8.674;2022-08-19T01:58:07;17.63;;;14.83;;
3714;SDS011;1873;49.988;8.674;2022-08-19T02:00:50;17.10;;;15.47;;
3714;SDS011;1873;49.988;8.674;2022-08-19T02:03:19;18.90;;;15.63;;
3714;SDS011;1873;49.988;8.674;2022-08-19T02:05:47;17.77;;;15.90;;
3714;SDS011;1873;49.988;8.674;2022-08-19T02:08:19;16.60;;;14.77;;
3714;SDS011;1873;49.988;8.674;2022-08-19T02:10:47;16.00;;;14.40;;
3714;SDS011;1873;49.988;8.674;2022-08-19T02:13:16;15.83;;;14.30;;
3714;SDS011;1873;49.988;8.674;2022-08-19T02:15:51;17.60;;;15.80;;
3714;SDS011;1873;49.988;8.674;2022-08-19T02:18:20;17.57;;;15.67;;
3714;SDS011;1873;49.988;8.674;2022-08-19T02:20:53;16.80;;;13.93;;
3714;SDS011;1873;49.988;8.674;2022-08-19T02:23:23;16.60;;;14.73;;
3714;SDS011;1873;49.988;8.674;2022-08-19T02:25:51;18.90;;;13.00;;
3714;SDS011;1873;49.988;8.674;2022-08-19T02:28:19;15.70;;;14.20;;
3714;SDS011;1873;49.988;8.674;2022-08-19T02:30:47;15.93;;;14.33;;
3714;SDS011;1873;49.988;8.674;2022-08-19T02:33:18;15.87;;;14.10;;
3714;SDS011;1873;49.988;8.674;2022-08-19T02:35:46;15.83;;;13.80;;
3714;SDS011;1873;49.988;8.674;2022-08-19T02:38:14;18.37;;;15.63;;
3714;SDS011;1873;49.988;8.674;2022-08-19T02:40:57;14.73;;;13.33;;
3714;SDS011;1873;49.988;8.674;2022-08-19T02:43:30;14.87;;;13.30;;
3714;SDS011;1873;49.988;8.674;2022-08-19T02:46:10;14.73;;;13.27;;
3714;SDS011;1873;49.988;8.674;2022-08-19T02:48:42;18.17;;;13.80;;
3714;SDS011;1873;49.988;8.674;2022-08-19T02:51:15;15.80;;;14.13;;
3714;SDS011;1873;49.988;8.674;2022-08-19T02:53:45;15.67;;;14.07;;
3714;SDS011;1873;49.988;8.674;2022-08-19T02:56:15;14.63;;;13.13;;
3714;SDS011;1873;49.988;8.674;2022-08-19T02:58:44;16.03;;;14.47;;
3714;SDS011;1873;49.988;8.674;2022-08-19T03:01:18;16.13;;;14.53;;
3714;SDS011;1873;49.988;8.674;2022-08-19T03:03:49;15.30;;;13.80;;
3714;SDS011;1873;49.988;8.674;2022-08-19T03:06:17;15.40;;;13.80;;
3714;SDS011;1873;49.988;8.674;2022-08-19T03:08:47;14.20;;;12.70;;
3714;SDS011;1873;49.988;8.674;2022-08-19T03:11:19;14.80;;;12.70;;
3714;SDS011;1873;49.988;8.674;2022-08-19T03:13:50;13.70;;;12.40;;
3714;SDS011;1873;49.988;8.674;2022-08-19T03:16:20;15.40;;;13.80;;
3714;SDS011;1873;49.988;8.674;2022-08-19T03:18:51;13.60;;;12.40;;
3714;SDS011;1873;49.988;8.674;2022-08-19T03:21:21;14.77;;;13.27;;
3714;SDS011;1873;49.988;8.674;2022-08-19T03:23:53;14.97;;;13.37;;
3714;SDS011;1873;49.988;8.674;2022-08-19T03:26:24;14.47;;;13.10;;
3714;SDS011;1873;49.988;8.674;2022-08-19T03:28:52;15.07;;;13.57;;
3714;SDS011;1873;49.988;8.674;2022-08-19T03:31:24;14.70;;;13.17;;
3714;SDS011;1873;49.988;8.674;2022-08-19T03:34:15;16.10;;;13.40;;
3714;SDS011;1873;49.988;8.674;2022-08-19T03:36:46;14.73;;;12.93;;
3714;SDS011;1873;49.988;8.674;2022-08-19T03:39:15;15.73;;;14.20;;
3714;SDS011;1873;49.988;8.674;2022-08-19T03:41:45;14.30;;;12.80;;
3714;SDS011;1873;49.988;8.674;2022-08-19T03:44:36;13.83;;;12.43;;
3714;SDS011;1873;49.988;8.674;2022-08-19T03:47:05;15.23;;;12.47;;
3714;SDS011;1873;49.988;8.674;2022-08-19T03:49:33;15.10;;;13.50;;
3714;SDS011;1873;49.988;8.674;2022-08-19T03:52:03;14.20;;;12.70;;
3714;SDS011;1873;49.988;8.674;2022-08-19T03:54:34;14.20;;;12.30;;
3714;SDS011;1873;49.988;8.674;2022-08-19T03:57:05;15.10;;;13.47;;
3714;SDS011;1873;49.988;8.674;2022-08-19T03:59:35;15.20;;;12.83;;
3714;SDS011;1873;49.988;8.674;2022-08-19T04:02:06;15.70;;;14.00;;
3714;SDS011;1873;49.988;8.674;2022-08-19T04:04:37;17.93;;;13.17;;
3714;SDS011;1873;49.988;8.674;2022-08-19T04:07:06;15.87;;;13.60;;
3714;SDS011;1873;49.988;8.674;2022-08-19T04:09:35;19.33;;;13.03;;
3714;SDS011;1873;49.988;8.674;2022-08-19T04:12:06;13.73;;;12.33;;
3714;SDS011;1873;49.988;8.674;2022-08-19T04:14:37;14.53;;;12.80;;
3714;SDS011;1873;49.988;8.674;2022-08-19T04:17:06;14.50;;;11.90;;
3714;SDS011;1873;49.988;8.674;2022-08-19T04:19:35;14.00;;;11.00;;
3714;SDS011;1873;49.988;8.674;2022-08-19T04:22:04;14.27;;;12.87;;
3714;SDS011;1873;49.988;8.674;2022-08-19T04:24:33;15.77;;;12.30;;
3714;SDS011;1873;49.988;8.674;2022-08-19T04:27:03;13.10;;;11.90;;
3714;SDS011;1873;49.988;8.674;2022-08-19T04:29:33;14.07;;;12.67;;
3714;SDS011;1873;49.988;8.674;2022-08-19T04:32:02;13.90;;;11.77;;
3714;SDS011;1873;49.988;8.674;2022-08-19T04:34:35;13.37;;;11.63;;
3714;SDS011;1873;49.988;8.674;2022-08-19T04:37:24;16.83;;;13.67;;
3714;SDS011;1873;49.988;8.674;2022-08-19T04:40:00;14.17;;;12.70;;
3714;SDS011;1873;49.988;8.674;2022-08-19T04:42:48;14.80;;;12.20;;
3714;SDS011;1873;49.988;8.674;2022-08-19T04:45:16;14.27;;;12.77;;
3714;SDS011;1873;49.988;8.674;2022-08-19T04:47:48;14.10;;;12.70;;
3714;SDS011;1873;49.988;8.674;2022-08-19T04:50:39;14.00;;;12.50;;
3714;SDS011;1873;49.988;8.674;2022-08-19T04:53:09;13.97;;;12.53;;
3714;SDS011;1873;49.988;8.674;2022-08-19T04:55:38;16.40;;;12.60;;
3714;SDS011;1873;49.988;8.674;2022-08-19T04:58:09;14.57;;;12.83;;
3714;SDS011;1873;49.988;8.674;2022-08-19T05:00:38;14.47;;;13.10;;
3714;SDS011;1873;49.988;8.674;2022-08-19T05:03:07;15.87;;;13.00;;
3714;SDS011;1873;49.988;8.674;2022-08-19T05:05:38;18.63;;;13.20;;
3714;SDS011;1873;49.988;8.674;2022-08-19T05:08:10;14.00;;;11.47;;
3714;SDS011;1873;49.988;8.674;2022-08-19T05:10:41;13.80;;;12.40;;
3714;SDS011;1873;49.988;8.674;2022-08-19T05:13:12;13.83;;;11.60;;
3714;SDS011;1873;49.988;8.674;2022-08-19T05:15:40;14.50;;;12.30;;
3714;SDS011;1873;49.988;8.674;2022-08-19T05:18:09;13.47;;;12.07;;
3714;SDS011;1873;49.988;8.674;2022-08-19T05:20:54;13.10;;;11.80;;
3714;SDS011;1873;49.988;8.674;2022-08-19T05:23:40;14.20;;;12.50;;
3714;SDS011;1873;49.988;8.674;2022-08-19T05:26:13;17.83;;;12.90;;
3714;SDS011;1873;49.988;8.674;2022-08-19T05:28:43;13.07;;;11.70;;
3714;SDS011;1873;49.988;8.674;2022-08-19T05:31:12;13.17;;;11.73;;
3714;SDS011;1873;49.988;8.674;2022-08-19T05:33:40;12.40;;;11.10;;
3714;SDS011;1873;49.988;8.674;2022-08-19T05:36:08;15.27;;;12.77;;
3714;SDS011;1873;49.988;8.674;2022-08-19T05:38:36;16.03;;;14.37;;
3714;SDS011;1873;49.988;8.674;2022-08-19T05:41:06;17.97;;;12.40;;
3714;SDS011;1873;49.988;8.674;2022-08-19T05:43:35;15.93;;;12.50;;
3714;SDS011;1873;49.988;8.674;2022-08-19T05:46:05;15.30;;;11.37;;
3714;SDS011;1873;49.988;8.674;2022-08-19T05:48:35;14.97;;;11.23;;
3714;SDS011;1873;49.988;8.674;2022-08-19T05:51:03;17.50;;;11.73;;
3714;SDS011;1873;49.988;8.674;2022-08-19T05:53:35;13.80;;;10.53;;
3714;SDS011;1873;49.988;8.674;2022-08-19T05:56:04;12.27;;;11.07;;
3714;SDS011;1873;49.988;8.674;2022-08-19T05:58:33;13.33;;;11.67;;
3714;SDS011;1873;49.988;8.674;2022-08-19T06:01:03;12.70;;;11.50;;
3714;SDS011;1873;49.988;8.674;2022-08-19T06:03:34;11.63;;;10.37;;
3714;SDS011;1873;49.988;8.674;2022-08-19T06:06:03;12.33;;;10.83;;
3714;SDS011;1873;49.988;8.674;2022-08-19T06:08:32;14.63;;;11.30;;
3714;SDS011;1873;49.988;8.674;2022-08-19T06:13:49;14.40;;;10.90;;
3714;SDS011;1873;49.988;8.674;2022-08-19T06:16:25;11.87;;;10.57;;
3714;SDS011;1873;49.988;8.674;2022-08-19T06:18:55;12.13;;;10.17;;
3714;SDS011;1873;49.988;8.674;2022-08-19T06:21:26;13.43;;;12.13;;
3714;SDS011;1873;49.988;8.674;2022-08-19T06:23:55;16.90;;;13.97;;
3714;SDS011;1873;49.988;8.674;2022-08-19T06:26:24;16.13;;;14.30;;
3714;SDS011;1873;49.988;8.674;2022-08-19T06:28:53;15.77;;;14.17;;
3714;SDS011;1873;49.988;8.674;2022-08-19T06:31:24;17.90;;;14.70;;
3714;SDS011;1873;49.988;8.674;2022-08-19T06:33:53;13.47;;;12.17;;
3714;SDS011;1873;49.988;8.674;2022-08-19T06:36:25;16.93;;;13.80;;
3714;SDS011;1873;49.988;8.674;2022-08-19T06:38:58;15.50;;;13.77;;
3714;SDS011;1873;49.988;8.674;2022-08-19T06:41:27;16.20;;;14.50;;
3714;SDS011;1873;49.988;8.674;2022-08-19T06:43:56;15.63;;;14.00;;
3714;SDS011;1873;49.988;8.674;2022-08-19T06:46:25;18.20;;;14.90;;
3714;SDS011;1873;49.988;8.674;2022-08-19T06:48:55;15.13;;;13.67;;
3714;SDS011;1873;49.988;8.674;2022-08-19T06:51:24;16.33;;;14.83;;
3714;SDS011;1873;49.988;8.674;2022-08-19T06:53:56;14.90;;;12.90;;
3714;SDS011;1873;49.988;8.674;2022-08-19T06:56:26;13.40;;;11.73;;
3714;SDS011;1873;49.988;8.674;2022-08-19T06:59:00;11.60;;;9.60;;
3714;SDS011;1873;49.988;8.674;2022-08-19T07:01:28;10.80;;;9.70;;
3714;SDS011;1873;49.988;8.674;2022-08-19T07:03:59;9.43;;;8.40;;
3714;SDS011;1873;49.988;8.674;2022-08-19T07:06:29;10.20;;;9.30;;
3714;SDS011;1873;49.988;8.674;2022-08-19T07:09:10;41.40;;;37.23;;
3714;SDS011;1873;49.988;8.674;2022-08-19T07:11:44;9.73;;;8.70;;
3714;SDS011;1873;49.988;8.674;2022-08-19T07:14:13;12.53;;;8.90;;
3714;SDS011;1873;49.988;8.674;2022-08-19T07:16:45;9.10;;;8.20;;
3714;SDS011;1873;49.988;8.674;2022-08-19T07:19:18;8.73;;;7.67;;
3714;SDS011;1873;49.988;8.674;2022-08-19T07:21:48;7.70;;;7.10;;
3714;SDS011;1873;49.988;8.674;2022-08-19T07:24:19;7.73;;;7.03;;
3714;SDS011;1873;49.988;8.674;2022-08-19T07:26:52;8.83;;;7.50;;
3714;SDS011;1873;49.988;8.674;2022-08-19T07:29:23;7.63;;;6.93;;
3714;SDS011;1873;49.988;8.674;2022-08-19T07:31:54;8.40;;;7.13;;
3714;SDS011;1873;49.988;8.674;2022-08-19T07:34:28;7.40;;;6.70;;
3714;SDS011;1873;49.988;8.674;2022-08-19T07:36:58;6.80;;;6.17;;
3714;SDS011;1873;49.988;8.674;2022-08-19T07:39:29;7.27;;;6.57;;
3714;SDS011;1873;49.988;8.674;2022-08-19T07:42:00;6.87;;;6.27;;
3714;SDS011;1873;49.988;8.674;2022-08-19T07:44:32;7.70;;;7.10;;
3714;SDS011;1873;49.988;8.674;2022-08-19T07:47:02;6.63;;;6.10;;
3714;SDS011;1873;49.988;8.674;2022-08-19T07:49:54;8.35;;;6.28;;
3714;SDS011;1873;49.988;8.674;2022-08-19T07:52:23;9.65;;;6.20;;
3714;SDS011;1873;49.988;8.674;2022-08-19T07:54:52;6.95;;;6.25;;
3714;SDS011;1873;49.988;8.674;2022-08-19T07:57:20;9.32;;;6.45;;
3714;SDS011;1873;49.988;8.674;2022-08-19T07:59:51;6.53;;;5.70;;
3714;SDS011;1873;49.988;8.674;2022-08-19T08:02:20;5.85;;;5.18;;
3714;SDS011;1873;49.988;8.674;2022-08-19T08:04:49;5.85;;;5.35;;
3714;SDS011;1873;49.988;8.674;2022-08-19T08:07:36;6.90;;;6.20;;
3714;SDS011;1873;49.988;8.674;2022-08-19T08:10:23;6.80;;;6.20;;
3714;SDS011;1873;49.988;8.674;2022-08-19T08:12:53;6.47;;;5.88;;
3714;SDS011;1873;49.988;8.674;2022-08-19T08:15:36;6.80;;;6.20;;
3714;SDS011;1873;49.988;8.674;2022-08-19T08:18:10;7.32;;;6.72;;
3714;SDS011;1873;49.988;8.674;2022-08-19T08:20:42;7.70;;;7.10;;
3714;SDS011;1873;49.988;8.674;2022-08-19T08:23:13;7.90;;;7.20;;
3714;SDS011;1873;49.988;8.674;2022-08-19T08:25:53;8.57;;;7.77;;
3714;SDS011;1873;49.988;8.674;2022-08-19T08:28:23;8.37;;;7.57;;
3714;SDS011;1873;49.988;8.674;2022-08-19T08:30:55;7.77;;;7.17;;
3714;SDS011;1873;49.988;8.674;2022-08-19T08:33:25;7.37;;;6.70;;
3714;SDS011;1873;49.988;8.674;2022-08-19T08:36:04;7.13;;;6.43;;
3714;SDS011;1873;49.988;8.674;2022-08-19T08:38:39;7.27;;;6.63;;
3714;SDS011;1873;49.988;8.674;2022-08-19T08:41:13;7.13;;;6.53;;
3714;SDS011;1873;49.988;8.674;2022-08-19T08:43:48;8.13;;;6.70;;
3714;SDS011;1873;49.988;8.674;2022-08-19T08:46:22;6.10;;;5.60;;
3714;SDS011;1873;49.988;8.674;2022-08-19T08:48:57;8.20;;;6.20;;
3714;SDS011;1873;49.988;8.674;2022-08-19T08:51:32;7.27;;;6.60;;
3714;SDS011;1873;49.988;8.674;2022-08-19T08:54:13;8.63;;;6.37;;
3714;SDS011;1873;49.988;8.674;2022-08-19T08:56:46;8.90;;;7.67;;
3714;SDS011;1873;49.988;8.674;2022-08-19T08:59:19;7.70;;;7.00;;
3714;SDS011;1873;49.988;8.674;2022-08-19T09:02:30;12.73;;;6.73;;
3714;SDS011;1873;49.988;8.674;2022-08-19T09:05:06;7.20;;;6.43;;
3714;SDS011;1873;49.988;8.674;2022-08-19T09:07:43;7.60;;;6.90;;
3714;SDS011;1873;49.988;8.674;2022-08-19T09:10:22;6.80;;;6.10;;
3714;SDS011;1873;49.988;8.674;2022-08-19T09:13:00;6.13;;;5.63;;
3714;SDS011;1873;49.988;8.674;2022-08-19T09:15:36;6.30;;;5.70;;
3714;SDS011;1873;49.988;8.674;2022-08-19T09:18:09;8.55;;;5.82;;
3714;SDS011;1873;49.988;8.674;2022-08-19T09:20:45;6.80;;;5.30;;
3714;SDS011;1873;49.988;8.674;2022-08-19T09:23:15;7.25;;;5.70;;
3714;SDS011;1873;49.988;8.674;2022-08-19T09:25:53;6.10;;;5.50;;
3714;SDS011;1873;49.988;8.674;2022-08-19T09:28:23;6.15;;;5.63;;
3714;SDS011;1873;49.988;8.674;2022-08-19T09:30:52;6.82;;;6.22;;
3714;SDS011;1873;49.988;8.674;2022-08-19T09:33:21;8.88;;;6.07;;
3714;SDS011;1873;49.988;8.674;2022-08-19T09:35:50;6.80;;;6.30;;
3714;SDS011;1873;49.988;8.674;2022-08-19T09:38:34;5.53;;;5.13;;
3714;SDS011;1873;49.988;8.674;2022-08-19T09:41:13;6.20;;;5.63;;
3714;SDS011;1873;49.988;8.674;2022-08-19T09:43:46;6.57;;;6.00;;
3714;SDS011;1873;49.988;8.674;2022-08-19T09:46:21;7.78;;;7.07;;
3714;SDS011;1873;49.988;8.674;2022-08-19T09:48:51;7.00;;;6.40;;
3714;SDS011;1873;49.988;8.674;2022-08-19T09:51:22;6.63;;;6.10;;
3714;SDS011;1873;49.988;8.674;2022-08-19T09:53:55;6.37;;;5.87;;
3714;SDS011;1873;49.988;8.674;2022-08-19T09:56:32;9.23;;;8.43;;
3714;SDS011;1873;49.988;8.674;2022-08-19T09:59:02;8.60;;;7.77;;
3714;SDS011;1873;49.988;8.674;2022-08-19T10:01:33;12.03;;;8.97;;
3714;SDS011;1873;49.988;8.674;2022-08-19T10:04:02;10.50;;;9.33;;
3714;SDS011;1873;49.988;8.674;2022-08-19T10:06:45;10.10;;;9.30;;
3714;SDS011;1873;49.988;8.674;2022-08-19T10:09:19;9.87;;;8.20;;
3714;SDS011;1873;49.988;8.674;2022-08-19T10:12:00;11.00;;;10.00;;
3714;SDS011;1873;49.988;8.674;2022-08-19T10:14:31;10.80;;;9.70;;
3714;SDS011;1873;49.988;8.674;2022-08-19T10:17:00;10.83;;;9.23;;
3714;SDS011;1873;49.988;8.674;2022-08-19T10:19:43;9.27;;;8.03;;
3714;SDS011;1873;49.988;8.674;2022-08-19T10:22:23;9.80;;;8.90;;
3714;SDS011;1873;49.988;8.674;2022-08-19T10:24:51;9.73;;;8.83;;
3714;SDS011;1873;49.988;8.674;2022-08-19T10:27:26;9.60;;;8.70;;
3714;SDS011;1873;49.988;8.674;2022-08-19T10:30:01;9.63;;;8.63;;
3714;SDS011;1873;49.988;8.674;2022-08-19T10:32:36;9.68;;;8.88;;
3714;SDS011;1873;49.988;8.674;2022-08-19T10:35:13;11.23;;;10.20;;
3714;SDS011;1873;49.988;8.674;2022-08-19T10:37:55;8.70;;;8.00;;
3714;SDS011;1873;49.988;8.674;2022-08-19T10:40:27;9.30;;;8.30;;
3714;SDS011;1873;49.988;8.674;2022-08-19T10:43:10;10.63;;;8.63;;
3714;SDS011;1873;49.988;8.674;2022-08-19T10:45:39;9.10;;;8.30;;
3714;SDS011;1873;49.988;8.674;2022-08-19T10:48:18;8.63;;;7.83;;
3714;SDS011;1873;49.988;8.674;2022-08-19T10:50:47;8.90;;;8.00;;
3714;SDS011;1873;49.988;8.674;2022-08-19T10:53:32;10.77;;;8.13;;
3714;SDS011;1873;49.988;8.674;2022-08-19T10:56:01;8.10;;;7.40;;
3714;SDS011;1873;49.988;8.674;2022-08-19T10:58:49;10.23;;;9.37;;
3714;SDS011;1873;49.988;8.674;2022-08-19T11:01:18;10.20;;;9.40;;
3714;SDS011;1873;49.988;8.674;2022-08-19T11:03:47;9.50;;;8.60;;
3714;SDS011;1873;49.988;8.674;2022-08-19T11:06:16;9.77;;;8.97;;
3714;SDS011;1873;49.988;8.674;2022-08-19T11:08:46;10.20;;;9.37;;
3714;SDS011;1873;49.988;8.674;2022-08-19T11:11:14;9.20;;;8.40;;
3714;SDS011;1873;49.988;8.674;2022-08-19T11:13:43;9.15;;;8.23;;
3714;SDS011;1873;49.988;8.674;2022-08-19T11:16:15;9.05;;;8.25;;
3714;SDS011;1873;49.988;8.674;2022-08-19T11:18:46;8.77;;;8.07;;
3714;SDS011;1873;49.988;8.674;2022-08-19T11:21:17;9.88;;;9.07;;
3714;SDS011;1873;49.988;8.674;2022-08-19T11:23:48;10.73;;;9.35;;
3714;SDS011;1873;49.988;8.674;2022-08-19T11:26:17;9.88;;;8.88;;
3714;SDS011;1873;49.988;8.674;2022-08-19T11:28:47;9.02;;;8.32;;
3714;SDS011;1873;49.988;8.674;2022-08-19T11:31:19;9.18;;;8.48;;
3714;SDS011;1873;49.988;8.674;2022-08-19T11:33:55;9.93;;;9.15;;
3714;SDS011;1873;49.988;8.674;2022-08-19T11:36:24;10.70;;;9.70;;
3714;SDS011;1873;49.988;8.674;2022-08-19T11:38:53;13.50;;;9.60;;
3714;SDS011;1873;49.988;8.674;2022-08-19T11:41:23;11.30;;;10.30;;
3714;SDS011;1873;49.988;8.674;2022-08-19T11:43:53;14.38;;;13.07;;
3714;SDS011;1873;49.988;8.674;2022-08-19T11:46:25;17.75;;;16.17;;
3714;SDS011;1873;49.988;8.674;2022-08-19T11:48:56;12.82;;;11.73;;
3714;SDS011;1873;49.988;8.674;2022-08-19T11:51:28;13.75;;;12.55;;
3714;SDS011;1873;49.988;8.674;2022-08-19T11:53:57;13.77;;;12.32;;
3714;SDS011;1873;49.988;8.674;2022-08-19T11:56:27;13.57;;;12.30;;
3714;SDS011;1873;49.988;8.674;2022-08-19T11:58:55;15.43;;;14.02;;
3714;SDS011;1873;49.988;8.674;2022-08-19T12:01:26;16.63;;;15.13;;
3714;SDS011;1873;49.988;8.674;2022-08-19T12:03:55;15.17;;;13.77;;
3714;SDS011;1873;49.988;8.674;2022-08-19T12:06:24;15.95;;;14.48;;
3714;SDS011;1873;49.988;8.674;2022-08-19T12:09:00;16.07;;;14.60;;
3714;SDS011;1873;49.988;8.674;2022-08-19T12:11:30;15.80;;;14.27;;
3714;SDS011;1873;49.988;8.674;2022-08-19T12:14:00;14.53;;;13.33;;
3714;SDS011;1873;49.988;8.674;2022-08-19T12:16:30;14.40;;;13.20;;
3714;SDS011;1873;49.988;8.674;2022-08-19T12:19:04;13.10;;;11.90;;
3714;SDS011;1873;49.988;8.674;2022-08-19T12:21:34;15.87;;;14.27;;
3714;SDS011;1873;49.988;8.674;2022-08-19T12:24:04;16.63;;;14.90;;
3714;SDS011;1873;49.988;8.674;2022-08-19T12:26:33;14.53;;;13.20;;
3714;SDS011;1873;49.988;8.674;2022-08-19T12:29:18;15.20;;;13.90;;
3714;SDS011;1873;49.988;8.674;2022-08-19T12:31:50;14.03;;;12.63;;
3714;SDS011;1873;49.988;8.674;2022-08-19T12:34:21;15.73;;;14.33;;
3714;SDS011;1873;49.988;8.674;2022-08-19T12:36:50;14.37;;;13.07;;
3714;SDS011;1873;49.988;8.674;2022-08-19T12:39:19;13.40;;;12.20;;
3714;SDS011;1873;49.988;8.674;2022-08-19T12:41:47;14.33;;;12.33;;
3714;SDS011;1873;49.988;8.674;2022-08-19T12:44:20;14.60;;;13.07;;
3714;SDS011;1873;49.988;8.674;2022-08-19T12:46:58;13.80;;;12.50;;
3714;SDS011;1873;49.988;8.674;2022-08-19T12:49:32;12.87;;;11.83;;
3714;SDS011;1873;49.988;8.674;2022-08-19T12:52:20;13.60;;;12.40;;
3714;SDS011;1873;49.988;8.674;2022-08-19T12:54:51;15.93;;;14.53;;
3714;SDS011;1873;49.988;8.674;2022-08-19T12:57:21;13.30;;;12.13;;
3714;SDS011;1873;49.988;8.674;2022-08-19T12:59:59;14.50;;;13.07;;
3714;SDS011;1873;49.988;8.674;2022-08-19T13:03:02;13.30;;;12.10;;
3714;SDS011;1873;49.988;8.674;2022-08-19T13:05:31;13.13;;;12.03;;
3714;SDS011;1873;49.988;8.674;2022-08-19T13:08:00;13.10;;;11.90;;
3714;SDS011;1873;49.988;8.674;2022-08-19T13:10:29;12.23;;;10.93;;
3714;SDS011;1873;49.988;8.674;2022-08-19T13:13:01;14.07;;;10.70;;
3714;SDS011;1873;49.988;8.674;2022-08-19T13:15:32;12.87;;;10.53;;
3714;SDS011;1873;49.988;8.674;2022-08-19T13:18:03;11.70;;;10.60;;
3714;SDS011;1873;49.988;8.674;2022-08-19T13:20:31;10.57;;;9.73;;
3714;SDS011;1873;49.988;8.674;2022-08-19T13:23:01;9.97;;;9.23;;
3714;SDS011;1873;49.988;8.674;2022-08-19T13:25:30;9.70;;;8.40;;
3714;SDS011;1873;49.988;8.674;2022-08-19T13:27:58;9.67;;;8.97;;
3714;SDS011;1873;49.988;8.674;2022-08-19T13:30:27;9.13;;;8.23;;
3714;SDS011;1873;49.988;8.674;2022-08-19T13:33:29;8.70;;;7.90;;
3714;SDS011;1873;49.988;8.674;2022-08-19T13:35:59;9.03;;;8.23;;
3714;SDS011;1873;49.988;8.674;2022-08-19T13:38:28;8.90;;;8.20;;
3714;SDS011;1873;49.988;8.674;2022-08-19T13:40:57;12.63;;;11.43;;
3714;SDS011;1873;49.988;8.674;2022-08-19T13:43:38;9.23;;;8.43;;
3714;SDS011;1873;49.988;8.674;2022-08-19T13:46:08;8.63;;;7.73;;
3714;SDS011;1873;49.988;8.674;2022-08-19T13:48:42;11.40;;;8.67;;
3714;SDS011;1873;49.988;8.674;2022-08-19T13:51:12;8.30;;;7.60;;
3714;SDS011;1873;49.988;8.674;2022-08-19T13:53:42;8.93;;;8.23;;
3714;SDS011;1873;49.988;8.674;2022-08-19T13:56:15;8.20;;;7.50;;
3714;SDS011;1873;49.988;8.674;2022-08-19T13:58:51;8.13;;;7.43;;
3714;SDS011;1873;49.988;8.674;2022-08-19T14:01:20;7.67;;;6.97;;
3714;SDS011;1873;49.988;8.674;2022-08-19T14:03:51;6.90;;;6.33;;
3714;SDS011;1873;49.988;8.674;2022-08-19T14:06:20;6.90;;;6.40;;
3714;SDS011;1873;49.988;8.674;2022-08-19T14:08:49;6.87;;;6.17;;
3714;SDS011;1873;49.988;8.674;2022-08-19T14:11:19;6.10;;;5.60;;
3714;SDS011;1873;49.988;8.674;2022-08-19T14:13:50;6.97;;;6.37;;
3714;SDS011;1873;49.988;8.674;2022-08-19T14:16:18;7.20;;;6.50;;
3714;SDS011;1873;49.988;8.674;2022-08-19T14:18:47;7.40;;;6.70;;
3714;SDS011;1873;49.988;8.674;2022-08-19T14:21:19;7.23;;;6.53;;
3714;SDS011;1873;49.988;8.674;2022-08-19T14:23:49;7.47;;;6.77;;
3714;SDS011;1873;49.988;8.674;2022-08-19T14:26:19;7.90;;;7.20;;
3714;SDS011;1873;49.988;8.674;2022-08-19T14:28:48;6.77;;;6.17;;
3714;SDS011;1873;49.988;8.674;2022-08-19T14:31:18;6.70;;;6.20;;
3714;SDS011;1873;49.988;8.674;2022-08-19T14:33:47;6.03;;;5.53;;
3714;SDS011;1873;49.988;8.674;2022-08-19T14:36:19;7.30;;;6.70;;
3714;SDS011;1873;49.988;8.674;2022-08-19T14:38:48;6.67;;;6.17;;
3714;SDS011;1873;49.988;8.674;2022-08-19T14:41:18;6.37;;;5.83;;
3714;SDS011;1873;49.988;8.674;2022-08-19T14:43:51;6.53;;;6.03;;
3714;SDS011;1873;49.988;8.674;2022-08-19T14:46:22;6.57;;;6.07;;
3714;SDS011;1873;49.988;8.674;2022-08-19T14:48:55;6.97;;;6.27;;
3714;SDS011;1873;49.988;8.674;2022-08-19T14:51:26;6.00;;;5.50;;
3714;SDS011;1873;49.988;8.674;2022-08-19T14:53:55;7.30;;;5.83;;
3714;SDS011;1873;49.988;8.674;2022-08-19T14:56:25;6.77;;;6.27;;
3714;SDS011;1873;49.988;8.674;2022-08-19T14:58:56;6.77;;;6.17;;
3714;SDS011;1873;49.988;8.674;2022-08-19T15:01:28;10.17;;;7.00;;
3714;SDS011;1873;49.988;8.674;2022-08-19T15:03:58;7.00;;;6.40;;
3714;SDS011;1873;49.988;8.674;2022-08-19T15:06:28;6.97;;;6.47;;
3714;SDS011;1873;49.988;8.674;2022-08-19T15:08:58;8.07;;;7.47;;
3714;SDS011;1873;49.988;8.674;2022-08-19T15:11:29;7.77;;;7.17;;
3714;SDS011;1873;49.988;8.674;2022-08-19T15:13:59;7.07;;;6.47;;
3714;SDS011;1873;49.988;8.674;2022-08-19T15:16:27;6.77;;;6.27;;
3714;SDS011;1873;49.988;8.674;2022-08-19T15:18:56;6.93;;;6.43;;
3714;SDS011;1873;49.988;8.674;2022-08-19T15:21:28;7.23;;;6.63;;
3714;SDS011;1873;49.988;8.674;2022-08-19T15:23:58;6.90;;;6.23;;
3714;SDS011;1873;49.988;8.674;2022-08-19T15:26:27;6.60;;;6.00;;
3714;SDS011;1873;49.988;8.674;2022-08-19T15:28:58;7.13;;;6.53;;
3714;SDS011;1873;49.988;8.674;2022-08-19T15:31:30;7.00;;;6.50;;